createdAt,value
2017-06-28T00:00:07.292Z,987.15
2017-06-28T00:01:17.569Z,987.11
2017-06-28T00:02:27.842Z,987.12
2017-06-28T00:03:38.129Z,987.15
2017-06-28T00:04:48.426Z,987.11
2017-06-28T00:05:58.720Z,987.15
2017-06-28T00:07:08.695Z,987.1
2017-06-28T00:08:18.969Z,987.07
2017-06-28T00:09:29.247Z,987.07
2017-06-28T00:10:39.216Z,987.06
2017-06-28T00:11:49.202Z,987.03
2017-06-28T00:12:59.494Z,986.95
2017-06-28T00:14:09.769Z,986.98
2017-06-28T00:15:19.131Z,986.97
2017-06-28T00:16:29.111Z,986.94
2017-06-28T00:17:39.103Z,986.88
2017-06-28T00:18:49.442Z,986.91
2017-06-28T00:19:59.742Z,986.87
2017-06-28T00:21:10.014Z,986.88
2017-06-28T00:22:20.302Z,986.81
2017-06-28T00:23:30.598Z,986.78
2017-06-28T00:24:40.871Z,986.8
2017-06-28T00:25:51.149Z,986.82
2017-06-28T00:27:01.435Z,986.83
2017-06-28T00:28:11.729Z,986.8
2017-06-28T00:29:21.704Z,986.79
2017-06-28T00:30:31.981Z,986.76
2017-06-28T00:31:42.255Z,986.78
2017-06-28T00:32:52.537Z,986.77
2017-06-28T00:34:02.821Z,986.75
2017-06-28T00:35:12.804Z,986.73
2017-06-28T00:36:23.090Z,986.7
2017-06-28T00:37:33.369Z,986.67
2017-06-28T00:38:43.669Z,986.69
2017-06-28T00:39:53.959Z,986.68
2017-06-28T00:41:04.240Z,986.69
2017-06-28T00:42:14.581Z,986.69
2017-06-28T00:43:24.872Z,986.66
2017-06-28T00:44:34.547Z,986.65
2017-06-28T00:45:44.223Z,986.64
2017-06-28T00:46:53.573Z,986.6
2017-06-28T00:48:03.599Z,986.56
2017-06-28T00:49:13.261Z,986.57
2017-06-28T00:50:23.543Z,986.52
2017-06-28T00:51:33.828Z,986.5
2017-06-28T00:52:43.799Z,986.52
2017-06-28T00:53:54.142Z,986.51
2017-06-28T00:55:04.146Z,986.52
2017-06-28T00:56:13.499Z,986.47
2017-06-28T00:57:23.464Z,986.5
2017-06-28T00:58:33.752Z,986.46
2017-06-28T00:59:44.078Z,986.41
2017-06-28T01:00:54.420Z,986.45
2017-06-28T01:02:04.713Z,986.41
2017-06-28T01:03:14.697Z,986.44
2017-06-28T01:04:24.675Z,986.44
2017-06-28T01:05:35.027Z,986.46
2017-06-28T01:06:45.313Z,986.43
2017-06-28T01:07:55.596Z,986.47
2017-06-28T01:09:05.564Z,986.45
2017-06-28T01:10:15.220Z,986.45
2017-06-28T01:11:25.552Z,986.45
2017-06-28T01:12:35.833Z,986.44
2017-06-28T01:13:46.133Z,986.49
2017-06-28T01:14:56.103Z,986.49
2017-06-28T01:16:06.090Z,986.45
2017-06-28T01:17:16.063Z,986.42
2017-06-28T01:18:26.046Z,986.39
2017-06-28T01:19:36.336Z,986.45
2017-06-28T01:20:46.312Z,986.36
2017-06-28T01:21:55.981Z,986.39
2017-06-28T01:23:06.256Z,986.41
2017-06-28T01:24:16.537Z,986.34
2017-06-28T01:25:26.830Z,986.31
2017-06-28T01:26:37.116Z,986.28
2017-06-28T01:27:47.090Z,986.27
2017-06-28T01:28:57.386Z,986.23
2017-06-28T01:30:07.676Z,986.17
2017-06-28T01:31:17.964Z,986.18
2017-06-28T01:32:27.959Z,986.18
2017-06-28T01:33:38.245Z,986.19
2017-06-28T01:34:47.908Z,986.14
2017-06-28T01:35:58.183Z,986.13
2017-06-28T01:37:08.460Z,986.13
2017-06-28T01:38:18.750Z,986.09
2017-06-28T01:39:29.035Z,986.11
2017-06-28T01:40:39.354Z,986.08
2017-06-28T01:41:49.644Z,986.1
2017-06-28T01:42:59.940Z,986.08
2017-06-28T01:44:09.909Z,986.09
2017-06-28T01:45:20.186Z,986.12
2017-06-28T01:46:30.457Z,986.04
2017-06-28T01:47:40.451Z,986.01
2017-06-28T01:48:50.121Z,986.02
2017-06-28T01:50:00.350Z,985.99
2017-06-28T01:51:10.637Z,986.01
2017-06-28T01:52:20.974Z,986
2017-06-28T01:53:31.251Z,986.01
2017-06-28T01:54:41.550Z,986.01
2017-06-28T01:55:51.825Z,985.99
2017-06-28T01:57:02.130Z,985.96
2017-06-28T01:58:12.408Z,985.93
2017-06-28T01:59:22.733Z,985.91
2017-06-28T02:00:33.012Z,985.84
2017-06-28T02:01:43.294Z,985.8
2017-06-28T02:02:52.957Z,985.84
2017-06-28T02:04:03.302Z,985.8
2017-06-28T02:05:13.582Z,985.77
2017-06-28T02:06:23.553Z,985.77
2017-06-28T02:07:33.838Z,985.79
2017-06-28T02:08:44.137Z,985.81
2017-06-28T02:09:54.423Z,985.75
2017-06-28T02:11:04.715Z,985.76
2017-06-28T02:12:15.002Z,985.79
2017-06-28T02:13:25.279Z,985.78
2017-06-28T02:14:35.259Z,985.77
2017-06-28T02:15:45.553Z,985.75
2017-06-28T02:16:55.537Z,985.76
2017-06-28T02:18:05.821Z,985.78
2017-06-28T02:19:16.337Z,985.76
2017-06-28T02:20:26.639Z,985.76
2017-06-28T02:21:36.914Z,985.78
2017-06-28T02:22:47.209Z,985.77
2017-06-28T02:23:57.229Z,985.76
2017-06-28T02:25:07.261Z,985.79
2017-06-28T02:26:17.615Z,985.73
2017-06-28T02:27:27.651Z,985.77
2017-06-28T02:28:37.910Z,985.74
2017-06-28T02:29:47.934Z,985.79
2017-06-28T02:30:57.966Z,985.81
2017-06-28T02:32:07.988Z,985.77
2017-06-28T02:33:18.331Z,985.79
2017-06-28T02:34:28.369Z,985.78
2017-06-28T02:35:38.726Z,985.77
2017-06-28T02:36:49.085Z,985.76
2017-06-28T02:37:59.111Z,985.74
2017-06-28T02:39:09.097Z,985.63
2017-06-28T02:40:19.439Z,985.66
2017-06-28T02:41:29.464Z,985.65
2017-06-28T02:42:39.824Z,985.61
2017-06-28T02:43:50.181Z,985.64
2017-06-28T02:45:00.267Z,985.67
2017-06-28T02:46:10.286Z,985.67
2017-06-28T02:47:20.627Z,985.6
2017-06-28T02:48:31.005Z,985.54
2017-06-28T02:49:41.350Z,985.59
2017-06-28T02:50:51.464Z,985.52
2017-06-28T02:52:01.490Z,985.51
2017-06-28T02:53:11.840Z,985.51
2017-06-28T02:54:22.194Z,985.47
2017-06-28T02:55:32.541Z,985.5
2017-06-28T02:56:42.641Z,985.47
2017-06-28T02:57:52.973Z,985.47
2017-06-28T02:59:03.293Z,985.47
2017-06-28T03:00:13.331Z,985.48
2017-06-28T03:01:23.369Z,985.45
2017-06-28T03:33:34.718Z,985.46
2017-06-28T03:34:44.755Z,985.46
2017-06-28T03:35:55.083Z,985.47
2017-06-28T03:37:05.421Z,985.43
2017-06-28T03:38:15.135Z,985.41
2017-06-28T03:39:25.529Z,985.35
2017-06-28T03:40:35.863Z,985.35
2017-06-28T03:41:45.888Z,985.38
2017-06-28T03:42:55.930Z,985.36
2017-06-28T03:44:06.295Z,985.38
2017-06-28T03:45:16.337Z,985.38
2017-06-28T03:46:26.673Z,985.38
2017-06-28T03:47:36.696Z,985.44
2017-06-28T03:48:47.034Z,985.44
2017-06-28T03:49:57.387Z,985.48
2017-06-28T03:51:07.149Z,985.53
2017-06-28T03:52:17.508Z,985.45
2017-06-28T03:53:27.859Z,985.5
2017-06-28T03:54:38.202Z,985.42
2017-06-28T03:55:48.550Z,985.43
2017-06-28T03:56:58.645Z,985.45
2017-06-28T03:58:08.367Z,985.42
2017-06-28T03:59:18.705Z,985.43
2017-06-28T04:00:28.100Z,985.4
2017-06-28T04:01:38.499Z,985.46
2017-06-28T04:02:48.905Z,985.44
2017-06-28T04:03:58.633Z,985.46
2017-06-28T04:05:08.351Z,985.48
2017-06-28T04:06:18.384Z,985.52
2017-06-28T04:07:28.422Z,985.55
2017-06-28T04:08:38.805Z,985.52
2017-06-28T04:09:48.851Z,985.53
2017-06-28T04:10:59.210Z,985.5
2017-06-28T04:12:09.551Z,985.5
2017-06-28T04:13:19.589Z,985.53
2017-06-28T04:14:29.983Z,985.53
2017-06-28T04:15:40.342Z,985.53
2017-06-28T04:16:50.695Z,985.49
2017-06-28T04:18:01.036Z,985.48
2017-06-28T04:19:11.404Z,985.49
2017-06-28T04:20:21.526Z,985.48
2017-06-28T04:21:31.865Z,985.71
2017-06-28T04:22:41.931Z,985.95
2017-06-28T04:23:52.265Z,985.97
2017-06-28T04:25:02.283Z,986.06
2017-06-28T04:26:12.000Z,986.16
2017-06-28T04:27:22.336Z,986.27
2017-06-28T04:28:32.372Z,986.27
2017-06-28T04:29:42.741Z,986.23
2017-06-28T04:30:52.776Z,986.15
2017-06-28T04:32:02.863Z,986.11
2017-06-28T04:33:13.203Z,986.09
2017-06-28T04:34:23.542Z,986.15
2017-06-28T04:35:33.574Z,986.23
2017-06-28T04:36:43.913Z,986.23
2017-06-28T04:37:53.954Z,986.13
2017-06-28T04:39:04.311Z,986.15
2017-06-28T04:40:14.339Z,986.23
2017-06-28T04:41:24.065Z,986.15
2017-06-28T04:42:34.430Z,986.13
2017-06-28T04:43:44.519Z,986.01
2017-06-28T04:44:54.567Z,985.9
2017-06-28T04:46:04.912Z,985.81
2017-06-28T04:47:15.282Z,985.82
2017-06-28T04:48:25.632Z,985.74
2017-06-28T04:49:35.985Z,985.66
2017-06-28T04:50:45.702Z,985.69
2017-06-28T04:51:55.749Z,985.68
2017-06-28T04:53:05.792Z,985.67
2017-06-28T04:54:15.821Z,985.7
2017-06-28T04:55:25.909Z,985.73
2017-06-28T04:56:36.255Z,985.69
2017-06-28T04:57:46.620Z,985.7
2017-06-28T04:58:56.646Z,985.73
2017-06-28T05:00:06.981Z,985.75
2017-06-28T05:01:17.382Z,985.74
2017-06-28T05:02:27.743Z,985.68
2017-06-28T05:03:38.126Z,985.71
2017-06-28T05:04:48.476Z,985.74
2017-06-28T05:05:58.822Z,985.69
2017-06-28T05:07:09.231Z,985.66
2017-06-28T05:08:19.598Z,985.68
2017-06-28T05:09:29.645Z,985.67
2017-06-28T05:10:40.002Z,985.67
2017-06-28T05:11:50.344Z,985.78
2017-06-28T05:13:00.734Z,985.63
2017-06-28T05:14:10.465Z,985.58
2017-06-28T05:15:20.809Z,985.56
2017-06-28T05:16:30.838Z,985.52
2017-06-28T05:17:41.188Z,985.43
2017-06-28T05:18:51.540Z,985.41
2017-06-28T05:20:01.887Z,985.42
2017-06-28T05:21:11.965Z,985.44
2017-06-28T05:22:22.315Z,985.2
2017-06-28T05:23:32.356Z,985.21
2017-06-28T05:24:42.718Z,985.34
2017-06-28T05:25:53.071Z,985.23
2017-06-28T05:27:03.406Z,985.19
2017-06-28T05:28:13.778Z,985.3
2017-06-28T05:29:24.137Z,985.29
2017-06-28T05:30:34.171Z,985.45
2017-06-28T05:31:44.519Z,985.43
2017-06-28T05:32:54.888Z,985.41
2017-06-28T05:34:05.241Z,985.41
2017-06-28T05:35:15.284Z,985.37
2017-06-28T05:36:25.368Z,985.39
2017-06-28T05:37:35.742Z,985.39
2017-06-28T05:38:45.783Z,985.41
2017-06-28T05:39:55.824Z,985.35
2017-06-28T05:41:05.862Z,985.38
2017-06-28T05:42:16.266Z,985.34
2017-06-28T05:43:26.319Z,985.31
2017-06-28T05:44:36.668Z,985.35
2017-06-28T05:45:46.719Z,985.36
2017-06-28T05:46:56.761Z,985.34
2017-06-28T05:48:06.802Z,985.37
2017-06-28T05:49:17.158Z,985.35
2017-06-28T05:50:27.217Z,985.35
2017-06-28T05:51:37.261Z,985.34
2017-06-28T05:52:47.606Z,985.34
2017-06-28T05:53:58.020Z,985.32
2017-06-28T05:55:08.373Z,985.3
2017-06-28T05:56:18.735Z,985.28
2017-06-28T05:57:29.084Z,985.31
2017-06-28T05:58:39.440Z,985.24
2017-06-28T05:59:49.480Z,985.29
2017-06-28T06:00:59.521Z,985.22
2017-06-28T06:02:09.877Z,985.23
2017-06-28T06:03:20.231Z,985.25
2017-06-28T06:04:30.576Z,985.22
2017-06-28T06:05:40.706Z,985.19
2017-06-28T06:06:51.096Z,985.21
2017-06-28T06:08:01.457Z,985.28
2017-06-28T06:09:11.809Z,985.22
2017-06-28T06:10:22.165Z,985.13
2017-06-28T06:11:32.248Z,985.33
2017-06-28T06:12:42.299Z,985.83
2017-06-28T06:13:52.632Z,985.95
2017-06-28T06:15:02.684Z,985.78
2017-06-28T06:16:13.036Z,985.7
2017-06-28T06:17:23.130Z,985.41
2017-06-28T06:18:33.486Z,985.24
2017-06-28T06:19:43.843Z,985.18
2017-06-28T06:20:54.196Z,985.14
2017-06-28T06:22:04.545Z,985.34
2017-06-28T06:23:14.954Z,985.36
2017-06-28T06:24:25.311Z,985.27
2017-06-28T06:25:35.700Z,985.33
2017-06-28T06:26:46.047Z,985.26
2017-06-28T06:27:55.768Z,985.27
2017-06-28T06:29:05.823Z,985.17
2017-06-28T06:30:16.176Z,985.18
2017-06-28T06:31:26.203Z,985.16
2017-06-28T06:32:36.240Z,985.19
2017-06-28T06:33:46.288Z,985.16
2017-06-28T06:34:56.639Z,985.09
2017-06-28T06:36:06.987Z,985.04
2017-06-28T06:37:17.335Z,985
2017-06-28T06:38:27.689Z,985
2017-06-28T06:39:38.065Z,985
2017-06-28T06:40:48.458Z,984.94
2017-06-28T06:41:58.810Z,984.79
2017-06-28T06:43:09.181Z,984.72
2017-06-28T06:44:19.525Z,984.71
2017-06-28T06:45:29.920Z,984.67
2017-06-28T06:46:40.312Z,984.65
2017-06-28T06:47:50.354Z,984.67
2017-06-28T06:49:00.085Z,984.64
2017-06-28T06:50:10.502Z,984.64
2017-06-28T06:51:20.843Z,984.65
2017-06-28T06:52:31.209Z,984.61
2017-06-28T06:53:41.262Z,984.66
2017-06-28T06:54:51.611Z,984.63
2017-06-28T06:56:01.360Z,984.58
2017-06-28T06:57:11.404Z,984.57
2017-06-28T06:58:21.491Z,984.56
2017-06-28T06:59:31.854Z,984.52
2017-06-28T07:00:42.216Z,984.5
2017-06-28T07:01:51.943Z,984.4
2017-06-28T07:03:02.311Z,984.43
2017-06-28T07:04:12.732Z,984.42
2017-06-28T07:05:22.774Z,984.4
2017-06-28T07:06:33.134Z,984.33
2017-06-28T07:07:43.487Z,984.31
2017-06-28T07:08:53.518Z,984.38
2017-06-28T07:10:03.927Z,984.4
2017-06-28T07:11:14.285Z,984.4
2017-06-28T07:12:24.371Z,984.32
2017-06-28T07:13:34.721Z,984.28
2017-06-28T07:14:44.776Z,984.33
2017-06-28T07:15:55.168Z,984.26
2017-06-28T07:17:05.528Z,984.24
2017-06-28T07:18:15.880Z,984.28
2017-06-28T07:19:25.921Z,984.27
2017-06-28T07:20:36.275Z,984.29
2017-06-28T07:21:46.366Z,984.28
2017-06-28T07:22:56.424Z,984.33
2017-06-28T07:24:06.780Z,984.33
2017-06-28T07:25:17.130Z,984.32
2017-06-28T07:26:27.500Z,984.38
2017-06-28T07:27:37.594Z,984.4
2017-06-28T07:28:47.959Z,984.34
2017-06-28T07:29:58.305Z,984.34
2017-06-28T07:31:08.689Z,984.37
2017-06-28T07:32:19.061Z,984.26
2017-06-28T07:33:29.442Z,984.3
2017-06-28T07:34:39.813Z,984.33
2017-06-28T07:35:50.206Z,984.31
2017-06-28T07:37:00.255Z,984.26
2017-06-28T07:38:10.411Z,984.24
2017-06-28T07:39:20.495Z,984.21
2017-06-28T07:40:30.856Z,984.21
2017-06-28T07:41:41.218Z,984.25
2017-06-28T07:42:51.267Z,984.17
2017-06-28T07:44:01.300Z,984.18
2017-06-28T07:45:11.721Z,984.22
2017-06-28T07:46:22.069Z,984.28
2017-06-28T07:47:32.114Z,984.3
2017-06-28T07:48:42.168Z,984.31
2017-06-28T07:49:52.534Z,984.35
2017-06-28T07:51:02.289Z,984.31
2017-06-28T07:52:12.329Z,984.29
2017-06-28T07:53:22.398Z,984.28
2017-06-28T07:54:32.806Z,984.32
2017-06-28T07:55:42.852Z,984.33
2017-06-28T07:56:53.207Z,984.34
2017-06-28T07:58:03.573Z,984.37
2017-06-28T07:59:13.614Z,984.36
2017-06-28T08:00:23.679Z,984.3
2017-06-28T08:01:34.044Z,984.28
2017-06-28T08:02:44.143Z,984.37
2017-06-28T08:03:54.489Z,984.43
2017-06-28T08:05:04.859Z,984.41
2017-06-28T08:06:15.235Z,984.36
2017-06-28T08:07:25.598Z,984.3
2017-06-28T08:08:36.023Z,984.28
2017-06-28T08:09:46.068Z,984.31
2017-06-28T08:10:56.418Z,984.3
2017-06-28T08:12:06.772Z,984.31
2017-06-28T08:13:17.134Z,984.3
2017-06-28T08:14:27.559Z,984.28
2017-06-28T08:15:37.927Z,984.24
2017-06-28T08:16:48.285Z,984.25
2017-06-28T08:17:58.622Z,984.29
2017-06-28T08:19:08.969Z,984.24
2017-06-28T08:20:19.373Z,984.24
2017-06-28T08:21:29.715Z,984.17
2017-06-28T08:22:40.079Z,984.14
2017-06-28T08:23:50.434Z,984.14
2017-06-28T08:25:00.787Z,984.13
2017-06-28T08:26:11.195Z,984.1
2017-06-28T08:27:21.228Z,984.07
2017-06-28T08:28:31.266Z,984.06
2017-06-28T08:29:41.297Z,983.93
2017-06-28T08:30:51.651Z,983.97
2017-06-28T08:32:02.048Z,983.97
2017-06-28T08:33:12.403Z,983.98
2017-06-28T08:34:22.755Z,984.03
2017-06-28T08:35:33.136Z,984.03
2017-06-28T08:36:43.542Z,984.04
2017-06-28T08:37:53.578Z,984.02
2017-06-28T08:39:03.942Z,984.03
2017-06-28T08:40:14.309Z,983.97
2017-06-28T08:41:24.335Z,983.94
2017-06-28T08:42:34.379Z,983.88
2017-06-28T08:43:44.758Z,983.9
2017-06-28T08:44:54.790Z,983.98
2017-06-28T08:46:05.189Z,984.03
2017-06-28T08:47:15.559Z,983.94
2017-06-28T08:48:25.923Z,983.86
2017-06-28T08:49:35.955Z,983.97
2017-06-28T08:50:46.002Z,983.97
2017-06-28T08:51:56.356Z,983.94
2017-06-28T08:53:07.834Z,983.92
2017-06-28T08:54:18.643Z,983.93
2017-06-28T08:55:28.710Z,983.91
2017-06-28T08:56:38.770Z,983.91
2017-06-28T08:57:49.785Z,983.88
2017-06-28T08:58:59.521Z,983.84
2017-06-28T09:00:09.884Z,983.85
2017-06-28T09:01:20.258Z,983.74
2017-06-28T09:02:30.610Z,983.62
2017-06-28T09:03:41.089Z,983.66
2017-06-28T09:04:50.815Z,983.65
2017-06-28T09:06:01.182Z,983.65
2017-06-28T09:07:11.544Z,983.66
2017-06-28T09:08:21.912Z,983.64
2017-06-28T09:09:32.510Z,983.68
2017-06-28T09:10:42.871Z,983.67
2017-06-28T09:11:52.593Z,983.65
2017-06-28T09:13:02.949Z,983.69
2017-06-28T09:14:13.005Z,983.69
2017-06-28T09:15:23.378Z,983.65
2017-06-28T09:16:33.409Z,983.64
2017-06-28T09:17:43.756Z,983.64
2017-06-28T09:18:54.121Z,983.63
2017-06-28T09:20:04.484Z,983.66
2017-06-28T09:21:14.232Z,983.64
2017-06-28T09:22:24.600Z,983.65
2017-06-28T09:23:34.960Z,983.57
2017-06-28T09:24:45.333Z,983.51
2017-06-28T09:25:55.679Z,983.48
2017-06-28T09:27:05.407Z,983.48
2017-06-28T09:28:15.124Z,983.43
2017-06-28T09:29:25.475Z,983.45
2017-06-28T09:30:35.840Z,983.44
2017-06-28T09:31:46.198Z,983.38
2017-06-28T09:32:56.291Z,983.39
2017-06-28T09:34:06.645Z,983.39
2017-06-28T09:35:17.000Z,983.37
2017-06-28T09:36:27.351Z,983.48
2017-06-28T09:37:37.707Z,983.41
2017-06-28T09:38:48.086Z,983.34
2017-06-28T09:39:58.473Z,983.42
2017-06-28T09:41:08.838Z,983.5
2017-06-28T09:42:18.890Z,983.41
2017-06-28T09:43:29.289Z,983.4
2017-06-28T09:44:39.676Z,983.37
2017-06-28T09:45:50.022Z,983.34
2017-06-28T09:47:00.067Z,983.39
2017-06-28T09:48:10.426Z,983.31
2017-06-28T09:49:20.836Z,983.31
2017-06-28T09:50:30.900Z,983.36
2017-06-28T09:51:40.956Z,983.34
2017-06-28T09:52:51.309Z,983.26
2017-06-28T09:54:01.679Z,983.2
2017-06-28T09:55:11.791Z,983.17
2017-06-28T09:56:21.835Z,983.08
2017-06-28T09:57:31.870Z,983.02
2017-06-28T09:58:41.920Z,983
2017-06-28T09:59:51.965Z,982.95
2017-06-28T10:01:02.056Z,982.93
2017-06-28T10:02:12.097Z,982.92
2017-06-28T10:03:22.457Z,982.88
2017-06-28T10:04:32.812Z,982.85
2017-06-28T10:05:43.178Z,982.8
2017-06-28T10:06:53.519Z,982.84
2017-06-28T10:08:03.892Z,982.79
2017-06-28T10:09:13.944Z,982.75
2017-06-28T10:10:24.308Z,982.73
2017-06-28T10:11:34.039Z,982.75
2017-06-28T10:12:44.503Z,982.78
2017-06-28T10:13:54.860Z,982.75
2017-06-28T10:15:05.234Z,982.79
2017-06-28T10:16:15.599Z,982.8
2017-06-28T10:17:25.946Z,982.76
2017-06-28T10:18:36.353Z,982.7
2017-06-28T10:19:46.739Z,982.74
2017-06-28T10:20:57.115Z,982.69
2017-06-28T10:22:07.473Z,982.66
2017-06-28T10:23:17.526Z,982.7
2017-06-28T10:24:27.950Z,982.66
2017-06-28T10:25:38.318Z,982.73
2017-06-28T10:26:48.696Z,982.75
2017-06-28T10:27:59.220Z,982.72
2017-06-28T10:29:09.593Z,982.73
2017-06-28T10:30:20.003Z,982.74
2017-06-28T10:31:30.062Z,982.76
2017-06-28T10:32:40.439Z,982.95
2017-06-28T10:33:50.486Z,982.89
2017-06-28T10:35:00.527Z,982.88
2017-06-28T10:36:10.955Z,982.9
2017-06-28T10:37:21.304Z,982.76
2017-06-28T10:38:31.691Z,982.92
2017-06-28T10:39:41.736Z,982.9
2017-06-28T10:40:52.097Z,982.85
2017-06-28T10:42:01.877Z,982.93
2017-06-28T10:43:12.268Z,982.94
2017-06-28T10:44:22.628Z,983.04
2017-06-28T10:45:32.993Z,982.99
2017-06-28T10:46:43.364Z,982.92
2017-06-28T10:47:53.736Z,982.98
2017-06-28T10:49:03.784Z,982.88
2017-06-28T10:50:13.852Z,982.83
2017-06-28T10:51:24.207Z,982.89
2017-06-28T10:52:34.602Z,982.85
2017-06-28T10:53:44.700Z,982.84
2017-06-28T10:54:55.071Z,982.87
2017-06-28T10:56:05.432Z,982.81
2017-06-28T10:57:15.478Z,982.84
2017-06-28T10:58:25.853Z,982.75
2017-06-28T10:59:36.278Z,982.8
2017-06-28T11:00:46.666Z,982.84
2017-06-28T11:01:57.049Z,982.78
2017-06-28T11:03:07.107Z,982.68
2017-06-28T11:04:17.475Z,982.75
2017-06-28T11:05:27.578Z,982.7
2017-06-28T11:06:37.962Z,982.77
2017-06-28T11:07:48.323Z,982.77
2017-06-28T11:08:58.699Z,982.82
2017-06-28T11:10:09.076Z,982.79
2017-06-28T11:11:19.498Z,982.68
2017-06-28T11:12:29.552Z,982.68
2017-06-28T11:13:39.903Z,982.66
2017-06-28T11:14:50.266Z,982.66
2017-06-28T11:16:00.640Z,982.69
2017-06-28T11:17:11.051Z,982.65
2017-06-28T11:18:21.416Z,982.59
2017-06-28T11:19:31.498Z,982.53
2017-06-28T11:20:41.860Z,982.56
2017-06-28T11:21:51.593Z,982.5
2017-06-28T11:23:01.958Z,982.49
2017-06-28T11:24:12.008Z,982.47
2017-06-28T11:25:22.386Z,982.51
2017-06-28T11:26:32.769Z,982.42
2017-06-28T11:27:43.137Z,982.45
2017-06-28T11:28:53.597Z,982.52
2017-06-28T11:30:03.643Z,982.58
2017-06-28T11:31:14.002Z,982.49
2017-06-28T11:32:24.292Z,982.46
2017-06-28T11:33:34.050Z,982.46
2017-06-28T11:34:44.467Z,982.61
2017-06-28T11:35:54.830Z,982.47
2017-06-28T11:37:05.188Z,982.46
2017-06-28T11:38:15.572Z,982.46
2017-06-28T11:39:25.962Z,982.4
2017-06-28T11:40:36.392Z,982.46
2017-06-28T11:41:46.763Z,982.46
2017-06-28T11:42:57.132Z,982.42
2017-06-28T11:44:07.181Z,982.36
2017-06-28T11:45:17.588Z,982.34
2017-06-28T11:46:28.020Z,982.32
2017-06-28T11:47:38.384Z,982.34
2017-06-28T11:48:48.759Z,982.38
2017-06-28T11:49:58.720Z,982.34
2017-06-28T11:51:08.768Z,982.4
2017-06-28T11:52:19.217Z,982.38
2017-06-28T11:53:29.277Z,982.3
2017-06-28T11:54:39.347Z,982.3
2017-06-28T11:55:49.729Z,982.32
2017-06-28T11:57:00.113Z,982.25
2017-06-28T11:58:10.534Z,982.25
2017-06-28T11:59:20.925Z,982.22
2017-06-28T12:00:31.308Z,982.22
2017-06-28T12:01:41.387Z,982.24
2017-06-28T12:02:51.774Z,982.25
2017-06-28T12:04:02.154Z,982.22
2017-06-28T12:05:12.216Z,982.17
2017-06-28T12:06:22.625Z,982.15
2017-06-28T12:07:33.001Z,982.1
2017-06-28T12:08:43.077Z,982.09
2017-06-28T12:09:52.912Z,982.1
2017-06-28T12:11:03.271Z,982.09
2017-06-28T12:12:13.322Z,982.14
2017-06-28T12:13:23.697Z,982.06
2017-06-28T12:14:34.075Z,982.12
2017-06-28T12:15:44.491Z,982.08
2017-06-28T12:16:54.912Z,982.01
2017-06-28T12:18:05.305Z,982.07
2017-06-28T12:19:15.665Z,982.07
2017-06-28T12:20:26.035Z,982
2017-06-28T12:21:36.467Z,982.01
2017-06-28T12:22:46.845Z,982.04
2017-06-28T12:23:57.224Z,982.01
2017-06-28T12:25:07.279Z,981.92
2017-06-28T12:26:17.636Z,981.85
2017-06-28T12:27:27.078Z,982
2017-06-28T12:28:37.460Z,981.86
2017-06-28T12:29:47.839Z,981.82
2017-06-28T12:30:57.601Z,981.76
2017-06-28T12:32:07.961Z,981.86
2017-06-28T12:33:18.334Z,981.85
2017-06-28T12:34:28.761Z,981.85
2017-06-28T12:35:39.118Z,981.82
2017-06-28T12:36:49.521Z,981.79
2017-06-28T12:37:59.594Z,981.75
2017-06-28T12:39:10.028Z,981.76
2017-06-28T12:40:20.399Z,981.78
2017-06-28T12:41:30.445Z,981.75
2017-06-28T12:42:40.827Z,981.82
2017-06-28T12:43:51.214Z,981.75
2017-06-28T12:45:01.347Z,981.73
2017-06-28T12:46:11.727Z,981.75
2017-06-28T12:47:21.791Z,981.72
2017-06-28T12:48:32.160Z,981.68
2017-06-28T12:49:42.531Z,981.61
2017-06-28T12:50:52.959Z,981.61
2017-06-28T12:52:03.337Z,981.57
2017-06-28T12:53:13.703Z,981.56
2017-06-28T12:54:24.088Z,981.54
2017-06-28T12:55:34.499Z,981.57
2017-06-28T12:56:44.915Z,981.6
2017-06-28T12:57:55.296Z,981.61
2017-06-28T12:59:05.694Z,981.56
2017-06-28T13:00:16.070Z,981.5
2017-06-28T13:01:26.425Z,981.63
2017-06-28T13:02:36.562Z,981.65
2017-06-28T13:03:46.940Z,981.55
2017-06-28T13:04:56.675Z,981.74
2017-06-28T13:06:06.753Z,981.68
2017-06-28T13:07:16.834Z,981.68
2017-06-28T13:08:27.250Z,981.63
2017-06-28T13:09:37.628Z,981.7
2017-06-28T13:10:47.713Z,981.73
2017-06-28T13:11:58.087Z,981.79
2017-06-28T13:13:08.149Z,981.66
2017-06-28T13:14:18.513Z,981.61
2017-06-28T13:15:28.892Z,981.61
2017-06-28T13:16:39.274Z,981.58
2017-06-28T13:17:49.544Z,981.63
2017-06-28T13:18:59.946Z,981.63
2017-06-28T13:20:10.374Z,981.6
2017-06-28T13:21:20.777Z,981.6
2017-06-28T13:22:30.837Z,981.53
2017-06-28T13:23:41.195Z,981.58
2017-06-28T13:24:51.266Z,981.56
2017-06-28T13:26:01.380Z,981.57
2017-06-28T13:27:11.769Z,981.63
2017-06-28T13:28:22.142Z,981.71
2017-06-28T13:29:32.513Z,981.64
2017-06-28T13:30:42.910Z,981.64
2017-06-28T13:31:53.347Z,981.56
2017-06-28T13:33:03.410Z,981.73
2017-06-28T13:34:13.783Z,981.61
2017-06-28T13:35:23.853Z,981.69
2017-06-28T13:36:34.228Z,981.59
2017-06-28T13:37:44.357Z,981.73
2017-06-28T13:38:54.742Z,981.69
2017-06-28T13:40:05.150Z,981.71
2017-06-28T13:41:15.518Z,981.68
2017-06-28T13:42:25.904Z,981.74
2017-06-28T13:43:35.950Z,981.68
2017-06-28T13:44:45.720Z,981.67
2017-06-28T13:45:55.788Z,981.7
2017-06-28T13:47:06.156Z,981.68
2017-06-28T13:48:16.572Z,981.7
2017-06-28T13:49:26.997Z,981.63
2017-06-28T13:50:37.050Z,981.77
2017-06-28T13:51:47.411Z,981.76
2017-06-28T13:52:57.813Z,981.73
2017-06-28T13:54:08.189Z,981.59
2017-06-28T13:55:18.591Z,981.6
2017-06-28T13:56:28.951Z,981.61
2017-06-28T13:57:39.331Z,981.64
2017-06-28T13:58:49.075Z,981.57
2017-06-28T13:59:59.140Z,981.52
2017-06-28T14:01:09.562Z,981.42
2017-06-28T14:02:19.640Z,981.61
2017-06-28T14:03:30.027Z,981.47
2017-06-28T14:04:40.382Z,981.46
2017-06-28T14:05:50.436Z,981.38
2017-06-28T14:07:00.798Z,981.31
2017-06-28T14:08:10.583Z,981.37
2017-06-28T14:09:20.653Z,981.35
2017-06-28T14:10:31.013Z,981.4
2017-06-28T14:11:40.765Z,981.26
2017-06-28T14:12:51.123Z,981.28
2017-06-28T14:14:01.207Z,981.24
2017-06-28T14:15:11.562Z,981.21
2017-06-28T14:16:21.954Z,981.32
2017-06-28T14:17:32.005Z,981.33
2017-06-28T14:18:42.402Z,981.25
2017-06-28T14:19:52.525Z,981.18
2017-06-28T14:21:02.278Z,981.22
2017-06-28T14:22:12.328Z,981.28
2017-06-28T14:23:22.400Z,981.25
2017-06-28T14:24:32.452Z,981.23
2017-06-28T14:25:42.817Z,981.15
2017-06-28T14:26:53.200Z,981.16
2017-06-28T14:28:03.567Z,981.15
2017-06-28T14:29:13.614Z,981.21
2017-06-28T14:30:24.005Z,981.16
2017-06-28T14:31:33.801Z,981.2
2017-06-28T14:32:43.548Z,981.26
2017-06-28T14:33:53.591Z,981.25
2017-06-28T14:35:03.956Z,981.21
2017-06-28T14:36:14.338Z,981.23
2017-06-28T14:37:24.712Z,981.21
2017-06-28T14:38:34.792Z,981.2
2017-06-28T14:39:44.853Z,981.07
2017-06-28T14:40:55.270Z,981.14
2017-06-28T14:42:05.654Z,981.07
2017-06-28T14:43:15.714Z,981.01
2017-06-28T14:44:25.785Z,981
2017-06-28T14:45:35.848Z,980.97
2017-06-28T14:46:45.914Z,981.02
2017-06-28T14:47:56.278Z,980.97
2017-06-28T14:49:06.687Z,981.06
2017-06-28T14:50:17.044Z,980.88
2017-06-28T14:51:27.423Z,980.86
2017-06-28T14:52:37.823Z,980.79
2017-06-28T14:53:48.191Z,980.71
2017-06-28T14:54:58.612Z,980.7
2017-06-28T14:56:08.983Z,980.7
2017-06-28T14:57:19.360Z,980.68
2017-06-28T14:58:29.116Z,980.68
2017-06-28T14:59:38.877Z,980.71
2017-06-28T15:00:49.300Z,980.61
2017-06-28T15:01:59.704Z,980.62
2017-06-28T15:03:10.094Z,980.51
2017-06-28T15:04:20.197Z,980.48
2017-06-28T15:05:30.579Z,980.49
2017-06-28T15:06:40.636Z,980.52
2017-06-28T15:07:50.672Z,980.55
2017-06-28T15:09:01.056Z,980.47
2017-06-28T15:10:11.434Z,980.46